createdAt,value
2019-02-06T00:00:14.164Z,0.00
2019-02-06T00:01:15.483Z,0.00
2019-02-06T00:02:14.155Z,0.00
2019-02-06T00:03:14.202Z,0.00
2019-02-06T00:04:15.500Z,0.00
2019-02-06T00:05:15.539Z,0.00
2019-02-06T00:06:14.027Z,0.00
2019-02-06T00:07:13.863Z,0.00
2019-02-06T00:08:13.858Z,0.00
2019-02-06T00:09:13.845Z,0.00
2019-02-06T00:10:13.846Z,0.00
2019-02-06T00:11:13.819Z,0.00
2019-02-06T00:12:13.805Z,0.00
2019-02-06T00:13:13.792Z,0.00
2019-02-06T00:14:13.802Z,0.00
2019-02-06T00:15:14.830Z,0.00
2019-02-06T00:16:13.793Z,0.00
2019-02-06T00:17:13.750Z,0.00
2019-02-06T00:18:13.772Z,0.00
2019-02-06T00:19:13.745Z,0.00
2019-02-06T00:20:13.719Z,0.00
2019-02-06T00:21:13.746Z,0.00
2019-02-06T00:22:13.696Z,0.00
2019-02-06T00:23:13.686Z,0.00
2019-02-06T00:24:13.677Z,0.00
2019-02-06T00:25:13.666Z,0.00
2019-02-06T00:26:13.654Z,0.00
2019-02-06T00:27:14.281Z,0.00
2019-02-06T00:28:13.633Z,0.00
2019-02-06T00:29:13.623Z,0.00
2019-02-06T00:30:13.617Z,0.00
2019-02-06T00:31:13.653Z,0.00
2019-02-06T00:32:13.588Z,0.00
2019-02-06T00:33:13.598Z,0.00
2019-02-06T00:34:13.567Z,0.00
2019-02-06T00:35:25.081Z,0.00
2019-02-06T00:36:15.283Z,0.00
2019-02-06T00:37:13.533Z,0.00
2019-02-06T00:38:13.521Z,0.00
2019-02-06T00:39:13.510Z,0.00
2019-02-06T00:40:13.500Z,0.00
2019-02-06T00:41:13.494Z,0.00
2019-02-06T00:42:13.479Z,0.00
2019-02-06T00:43:13.472Z,0.00
2019-02-06T00:44:13.464Z,0.00
2019-02-06T00:45:13.445Z,0.00
2019-02-06T00:46:13.433Z,0.00
2019-02-06T00:47:13.424Z,0.00
2019-02-06T00:48:13.421Z,0.00
2019-02-06T00:49:13.400Z,0.00
2019-02-06T00:50:13.393Z,0.00
2019-02-06T00:51:13.382Z,0.00
2019-02-06T00:52:13.368Z,0.00
2019-02-06T00:53:13.360Z,0.00
2019-02-06T00:54:13.350Z,0.00
2019-02-06T00:55:13.335Z,0.00
2019-02-06T00:56:13.324Z,0.00
2019-02-06T00:57:13.314Z,0.00
2019-02-06T00:58:13.303Z,0.00
2019-02-06T00:59:13.306Z,0.00
2019-02-06T01:00:13.282Z,0.00
2019-02-06T01:01:13.278Z,0.00
2019-02-06T01:02:13.265Z,0.00
2019-02-06T01:03:13.249Z,0.00
2019-02-06T01:04:13.242Z,0.00
2019-02-06T01:05:13.238Z,0.00
2019-02-06T01:06:13.224Z,0.00
2019-02-06T01:07:13.225Z,0.00
2019-02-06T01:08:13.199Z,0.00
2019-02-06T01:09:13.185Z,0.00
2019-02-06T01:10:13.177Z,0.00
2019-02-06T01:11:13.163Z,0.00
2019-02-06T01:12:13.154Z,0.00
2019-02-06T01:13:13.139Z,0.00
2019-02-06T01:14:13.131Z,0.00
2019-02-06T01:15:13.126Z,0.00
2019-02-06T01:16:13.111Z,0.00
2019-02-06T01:17:13.098Z,0.00
2019-02-06T01:18:13.099Z,0.00
2019-02-06T01:19:13.075Z,0.00
2019-02-06T01:20:13.064Z,0.00
2019-02-06T01:21:13.053Z,0.00
2019-02-06T01:22:13.059Z,0.00
2019-02-06T01:23:16.065Z,0.00
2019-02-06T01:24:13.021Z,0.00
2019-02-06T01:25:13.009Z,0.00
2019-02-06T01:26:12.999Z,0.00
2019-02-06T01:27:12.987Z,0.00
2019-02-06T01:28:12.978Z,0.00
2019-02-06T01:29:12.970Z,0.00
2019-02-06T01:30:12.956Z,0.00
2019-02-06T01:31:12.945Z,0.00
2019-02-06T01:32:12.936Z,0.00
2019-02-06T01:33:12.926Z,0.00
2019-02-06T01:34:12.913Z,0.00
2019-02-06T01:35:13.032Z,0.00
2019-02-06T01:36:12.889Z,0.00
2019-02-06T01:37:12.881Z,0.00
2019-02-06T01:38:12.867Z,0.00
2019-02-06T01:39:12.866Z,0.00
2019-02-06T01:40:12.852Z,0.00
2019-02-06T01:41:12.840Z,0.00
2019-02-06T01:42:12.827Z,0.00
2019-02-06T01:43:12.822Z,0.00
2019-02-06T01:44:12.804Z,0.00
2019-02-06T01:45:12.800Z,0.00
2019-02-06T01:46:12.799Z,0.00
2019-02-06T01:47:12.773Z,0.00
2019-02-06T01:48:12.782Z,0.00
2019-02-06T01:49:12.748Z,0.00
2019-02-06T01:50:12.742Z,0.00
2019-02-06T01:51:12.726Z,0.00
2019-02-06T01:52:12.721Z,0.00
2019-02-06T01:53:12.704Z,0.00
2019-02-06T01:54:12.694Z,0.00
2019-02-06T01:55:12.683Z,0.00
2019-02-06T01:56:12.672Z,0.00
2019-02-06T01:57:12.667Z,0.00
2019-02-06T01:58:12.649Z,0.00
2019-02-06T01:59:12.639Z,0.00
2019-02-06T02:00:12.628Z,0.00
2019-02-06T02:01:12.619Z,0.00
2019-02-06T02:02:12.614Z,0.00
2019-02-06T02:03:12.597Z,0.00
2019-02-06T02:04:12.587Z,0.00
2019-02-06T02:05:12.574Z,0.00
2019-02-06T02:06:12.564Z,0.00
2019-02-06T02:07:12.555Z,0.00
2019-02-06T02:08:12.543Z,0.00
2019-02-06T02:09:12.538Z,0.00
2019-02-06T02:10:12.524Z,0.00
2019-02-06T02:11:12.508Z,0.00
2019-02-06T02:12:12.501Z,0.00
2019-02-06T02:13:12.488Z,0.00
2019-02-06T02:14:12.483Z,0.00
2019-02-06T02:15:12.465Z,0.00
2019-02-06T02:16:12.455Z,0.00
2019-02-06T02:17:12.445Z,0.00
2019-02-06T02:18:12.432Z,0.00
2019-02-06T02:19:12.425Z,0.00
2019-02-06T02:20:12.412Z,0.00
2019-02-06T02:21:12.400Z,0.00
2019-02-06T02:22:12.390Z,0.00
2019-02-06T02:23:12.379Z,0.00
2019-02-06T02:24:12.371Z,0.00
2019-02-06T02:25:12.358Z,0.00
2019-02-06T02:26:12.359Z,0.00
2019-02-06T02:27:12.338Z,0.00
2019-02-06T02:28:12.325Z,0.00
2019-02-06T02:29:12.313Z,0.00
2019-02-06T02:30:12.304Z,0.00
2019-02-06T02:31:12.307Z,0.00
2019-02-06T02:32:12.299Z,0.00
2019-02-06T02:33:12.270Z,0.00
2019-02-06T02:34:12.259Z,0.00
2019-02-06T02:35:12.249Z,0.00
2019-02-06T02:36:15.960Z,0.00
2019-02-06T02:37:12.235Z,0.00
2019-02-06T02:38:12.218Z,0.00
2019-02-06T02:39:12.205Z,0.00
2019-02-06T02:40:12.200Z,0.00
2019-02-06T02:41:12.186Z,0.00
2019-02-06T02:42:12.174Z,0.00
2019-02-06T02:43:12.197Z,0.00
2019-02-06T02:44:12.149Z,0.00
2019-02-06T02:45:12.141Z,0.00
2019-02-06T02:46:12.129Z,0.00
2019-02-06T02:47:12.133Z,0.00
2019-02-06T02:48:12.117Z,0.00
2019-02-06T02:49:12.114Z,0.00
2019-02-06T02:50:12.085Z,0.00
2019-02-06T02:51:12.075Z,0.00
2019-02-06T02:52:12.062Z,0.00
2019-02-06T02:53:12.053Z,0.00
2019-02-06T02:54:12.043Z,0.00
2019-02-06T02:55:12.037Z,0.00
2019-02-06T02:56:12.018Z,0.00
2019-02-06T02:57:12.007Z,0.00
2019-02-06T02:58:12.012Z,0.00
2019-02-06T02:59:11.989Z,0.00
2019-02-06T03:00:11.984Z,0.00
2019-02-06T03:01:11.964Z,0.00
2019-02-06T03:02:11.953Z,0.00
2019-02-06T03:03:11.944Z,0.00
2019-02-06T03:04:11.931Z,0.00
2019-02-06T03:05:11.934Z,0.00
2019-02-06T03:06:11.913Z,0.00
2019-02-06T03:07:11.898Z,0.00
2019-02-06T03:08:11.890Z,0.00
2019-02-06T03:09:11.879Z,0.00
2019-02-06T03:10:11.867Z,0.00
2019-02-06T03:11:11.870Z,0.00
2019-02-06T03:12:11.850Z,0.00
2019-02-06T03:13:11.834Z,0.00
2019-02-06T03:14:11.822Z,0.00
2019-02-06T03:15:11.817Z,0.00
2019-02-06T03:16:11.804Z,0.00
2019-02-06T03:17:11.809Z,0.00
2019-02-06T03:18:11.787Z,0.00
2019-02-06T03:19:11.767Z,0.00
2019-02-06T03:20:11.771Z,0.00
2019-02-06T03:21:11.747Z,0.00
2019-02-06T03:22:11.735Z,0.00
2019-02-06T03:23:11.749Z,0.00
2019-02-06T03:24:11.715Z,0.00
2019-02-06T03:25:11.706Z,0.00
2019-02-06T03:26:11.693Z,0.00
2019-02-06T03:27:11.682Z,0.00
2019-02-06T03:28:11.672Z,0.00
2019-02-06T03:29:11.683Z,0.00
2019-02-06T03:30:11.651Z,0.00
2019-02-06T03:31:11.657Z,0.00
2019-02-06T03:32:11.662Z,0.00
2019-02-06T03:33:11.620Z,0.00
2019-02-06T03:34:11.612Z,0.00
2019-02-06T03:35:11.593Z,0.00
2019-02-06T03:36:11.582Z,0.00
2019-02-06T03:37:11.573Z,0.00
2019-02-06T03:38:11.572Z,0.00
2019-02-06T03:39:11.559Z,0.00
2019-02-06T03:40:11.540Z,0.00
2019-02-06T03:41:11.531Z,0.00
2019-02-06T03:42:11.519Z,0.00
2019-02-06T03:43:11.508Z,0.00
2019-02-06T03:44:11.496Z,0.00
2019-02-06T03:45:11.491Z,0.00
2019-02-06T03:46:11.476Z,0.00
2019-02-06T03:47:11.470Z,0.00
2019-02-06T03:48:11.454Z,0.00
2019-02-06T03:49:11.450Z,0.00
2019-02-06T03:50:11.433Z,0.00
2019-02-06T03:51:11.433Z,0.00
2019-02-06T03:52:11.411Z,0.00
2019-02-06T03:53:11.397Z,0.00
2019-02-06T03:54:11.388Z,0.00
2019-02-06T03:55:11.379Z,0.00
2019-02-06T03:56:11.375Z,0.00
2019-02-06T03:57:11.354Z,0.00
2019-02-06T03:58:11.346Z,0.00
2019-02-06T03:59:11.335Z,0.00
2019-02-06T04:00:11.324Z,0.00
2019-02-06T04:01:11.717Z,0.00
2019-02-06T04:02:11.301Z,0.00
2019-02-06T04:03:11.288Z,0.00
2019-02-06T04:04:11.278Z,0.00
2019-02-06T04:05:11.268Z,0.00
2019-02-06T04:06:11.269Z,0.00
2019-02-06T04:07:11.247Z,0.00
2019-02-06T04:08:11.251Z,0.00
2019-02-06T04:09:11.222Z,0.00
2019-02-06T04:10:11.215Z,0.00
2019-02-06T04:11:11.205Z,0.00
2019-02-06T04:12:11.197Z,0.00
2019-02-06T04:13:11.188Z,0.00
2019-02-06T04:14:11.170Z,0.00
2019-02-06T04:15:11.160Z,0.00
2019-02-06T04:16:11.150Z,0.00
2019-02-06T04:17:11.145Z,0.00
2019-02-06T04:18:11.149Z,0.00
2019-02-06T04:19:11.117Z,0.00
2019-02-06T04:20:11.108Z,0.00
2019-02-06T04:21:11.093Z,0.00
2019-02-06T04:22:11.091Z,0.00
2019-02-06T04:23:11.077Z,0.00
2019-02-06T04:24:11.063Z,0.00
2019-02-06T04:25:11.057Z,0.00
2019-02-06T04:26:11.039Z,0.00
2019-02-06T04:27:11.031Z,0.00
2019-02-06T04:28:11.016Z,0.00
2019-02-06T04:29:11.007Z,0.00
2019-02-06T04:30:10.994Z,0.00
2019-02-06T04:31:10.985Z,0.00
2019-02-06T04:32:10.978Z,0.00
2019-02-06T04:33:10.962Z,0.00
2019-02-06T04:34:10.952Z,0.00
2019-02-06T04:35:10.943Z,0.00
2019-02-06T04:36:10.933Z,0.00
2019-02-06T04:37:10.920Z,0.00
2019-02-06T04:38:10.910Z,0.00
2019-02-06T04:39:10.899Z,0.00
2019-02-06T04:40:10.886Z,0.00
2019-02-06T04:41:10.878Z,0.00
2019-02-06T04:42:10.884Z,0.00
2019-02-06T04:43:10.853Z,0.00
2019-02-06T04:44:10.846Z,0.00
2019-02-06T04:45:10.834Z,0.00
2019-02-06T04:46:10.882Z,0.00
2019-02-06T04:47:10.816Z,0.00
2019-02-06T04:48:10.801Z,0.00
2019-02-06T04:49:10.792Z,0.00
2019-02-06T04:50:10.778Z,0.00
2019-02-06T04:51:10.776Z,0.00
2019-02-06T04:52:10.755Z,0.00
2019-02-06T04:53:10.748Z,0.00
2019-02-06T04:54:10.757Z,0.00
2019-02-06T04:55:10.731Z,0.00
2019-02-06T04:56:10.725Z,0.00
2019-02-06T04:57:10.711Z,0.00
2019-02-06T04:58:10.698Z,0.00
2019-02-06T04:59:10.687Z,0.00
2019-02-06T05:00:10.668Z,0.00
2019-02-06T05:01:10.667Z,0.00
2019-02-06T05:02:10.653Z,0.00
2019-02-06T05:03:10.637Z,0.00
2019-02-06T05:04:10.625Z,0.00
2019-02-06T05:05:10.615Z,0.00
2019-02-06T05:06:10.603Z,0.00
2019-02-06T05:07:18.772Z,0.00
2019-02-06T05:08:11.585Z,0.00
2019-02-06T05:09:10.574Z,0.00
2019-02-06T05:10:10.571Z,0.00
2019-02-06T05:11:10.550Z,0.00
2019-02-06T05:12:10.644Z,0.00
2019-02-06T05:13:10.529Z,0.00
2019-02-06T05:14:10.527Z,0.00
2019-02-06T05:15:10.514Z,0.00
2019-02-06T05:16:10.533Z,0.00
2019-02-06T05:17:10.484Z,0.00
2019-02-06T05:18:10.477Z,0.00
2019-02-06T05:19:10.462Z,0.00
2019-02-06T05:20:10.457Z,0.00
2019-02-06T05:21:10.445Z,0.00
2019-02-06T05:22:10.428Z,0.00
2019-02-06T05:23:10.418Z,0.00
2019-02-06T05:24:10.411Z,0.00
2019-02-06T05:25:10.398Z,0.00
2019-02-06T05:26:10.393Z,0.00
2019-02-06T05:27:10.377Z,0.00
2019-02-06T05:28:10.364Z,0.00
2019-02-06T05:29:10.353Z,0.00
2019-02-06T05:30:10.346Z,0.00
2019-02-06T05:31:10.341Z,0.00
2019-02-06T05:32:10.329Z,0.00
2019-02-06T05:33:10.319Z,0.00
2019-02-06T05:34:10.307Z,0.00
2019-02-06T05:35:10.290Z,0.00
2019-02-06T05:36:10.286Z,0.00
2019-02-06T05:37:10.267Z,0.00
2019-02-06T05:38:10.255Z,0.00
2019-02-06T05:39:10.245Z,0.00
2019-02-06T05:40:10.276Z,0.00
2019-02-06T05:41:10.222Z,0.00
2019-02-06T05:42:10.213Z,0.00
2019-02-06T05:43:10.217Z,0.00
2019-02-06T05:44:10.205Z,0.00
2019-02-06T05:45:10.183Z,0.00
2019-02-06T05:46:10.169Z,0.00
2019-02-06T05:47:10.159Z,0.00
2019-02-06T05:48:10.155Z,0.00
2019-02-06T05:49:10.140Z,0.00
2019-02-06T05:50:10.133Z,0.00
2019-02-06T05:51:10.118Z,0.00
2019-02-06T05:52:10.115Z,0.00
2019-02-06T05:53:10.095Z,0.00
2019-02-06T05:54:10.084Z,0.00
2019-02-06T05:55:10.076Z,0.00
2019-02-06T05:56:10.061Z,0.00
2019-02-06T05:57:10.049Z,0.00
2019-02-06T05:58:10.040Z,0.00
2019-02-06T05:59:10.033Z,0.00
2019-02-06T06:00:10.027Z,0.00
2019-02-06T06:01:10.040Z,0.00
2019-02-06T06:02:09.994Z,0.00
2019-02-06T06:03:10.049Z,0.00
2019-02-06T06:04:09.974Z,0.00
2019-02-06T06:05:09.970Z,0.00
2019-02-06T06:06:12.104Z,0.00
2019-02-06T06:07:09.966Z,0.00
2019-02-06T06:08:09.931Z,0.00
2019-02-06T06:09:09.921Z,4.00
2019-02-06T06:10:00.270Z,4.00
2019-02-06T06:11:00.263Z,0.00
2019-02-06T06:12:30.716Z,4.00
2019-02-06T06:13:30.695Z,4.00
2019-02-06T06:15:01.176Z,4.00
2019-02-06T06:16:01.142Z,4.00
2019-02-06T06:17:31.613Z,4.00
2019-02-06T06:18:31.600Z,4.00
2019-02-06T06:19:31.590Z,4.00
2019-02-06T06:20:31.584Z,4.00
2019-02-06T06:21:31.571Z,8.00
2019-02-06T06:22:31.568Z,12.00
2019-02-06T06:23:31.547Z,12.00
2019-02-06T06:24:31.536Z,16.00
2019-02-06T06:25:31.524Z,12.00
2019-02-06T06:26:31.526Z,16.00
2019-02-06T06:27:31.511Z,20.00
2019-02-06T06:28:31.516Z,20.00
2019-02-06T06:29:31.515Z,24.00
2019-02-06T06:30:31.471Z,24.00
2019-02-06T06:31:31.463Z,32.00
2019-02-06T06:32:32.109Z,32.00
2019-02-06T06:33:31.440Z,36.00
2019-02-06T06:34:31.470Z,40.00
2019-02-06T06:35:16.067Z,44.00
2019-02-06T06:36:16.051Z,48.00
2019-02-06T06:37:57.808Z,56.00
2019-02-06T06:38:47.510Z,60.00
2019-02-06T06:40:16.992Z,68.00
2019-02-06T06:41:16.968Z,72.00
2019-02-06T06:42:47.428Z,88.00
2019-02-06T06:43:47.433Z,96.00
2019-02-06T06:44:47.402Z,104.00
2019-02-06T06:45:47.394Z,108.00
2019-02-06T06:46:47.384Z,120.00
2019-02-06T06:47:47.373Z,132.00
2019-02-06T06:48:47.359Z,140.00
2019-02-06T06:49:47.356Z,148.00
2019-02-06T06:50:47.341Z,160.00
2019-02-06T06:51:47.335Z,168.00
2019-02-06T06:52:47.320Z,180.00
2019-02-06T06:53:47.307Z,188.00
2019-02-06T06:54:47.295Z,196.00
2019-02-06T06:58:04.917Z,228.00
2019-02-06T06:59:04.895Z,244.00
2019-02-06T07:00:35.374Z,260.00
2019-02-06T07:01:35.344Z,268.00
2019-02-06T07:03:05.811Z,284.00
2019-02-06T07:04:05.808Z,292.00
2019-02-06T07:05:36.293Z,308.00
2019-02-06T07:06:36.284Z,316.00
2019-02-06T07:08:09.612Z,332.00
2019-02-06T07:09:07.708Z,344.00
2019-02-06T07:10:37.189Z,360.00
2019-02-06T07:11:37.168Z,376.00
2019-02-06T07:13:07.647Z,400.00
2019-02-06T07:14:07.633Z,420.00
2019-02-06T07:15:07.621Z,444.00
2019-02-06T07:16:07.616Z,480.00
2019-02-06T07:17:07.601Z,528.00
2019-02-06T07:18:07.597Z,560.00
2019-02-06T07:19:07.581Z,596.00
2019-02-06T07:20:07.574Z,620.00
2019-02-06T07:21:07.560Z,632.00
2019-02-06T07:22:07.552Z,648.00
2019-02-06T07:23:07.534Z,664.00
2019-02-06T07:24:07.532Z,688.00
2019-02-06T07:25:07.512Z,708.00
2019-02-06T07:26:07.503Z,732.00
2019-02-06T07:27:07.492Z,744.00
2019-02-06T07:28:07.481Z,772.00
2019-02-06T07:29:07.477Z,788.00
2019-02-06T07:30:07.460Z,796.00
2019-02-06T07:31:07.450Z,800.00
2019-02-06T07:32:07.440Z,808.00
2019-02-06T07:33:07.430Z,816.00
2019-02-06T07:34:07.417Z,836.00
2019-02-06T07:35:07.453Z,852.00
2019-02-06T07:36:07.403Z,876.00
2019-02-06T07:37:07.391Z,900.00
2019-02-06T07:38:07.373Z,924.00
2019-02-06T07:39:07.372Z,924.00
2019-02-06T07:40:07.354Z,920.00
2019-02-06T07:41:07.354Z,904.00
2019-02-06T07:42:07.331Z,892.00
2019-02-06T07:43:07.321Z,888.00
2019-02-06T07:44:07.309Z,880.00
2019-02-06T07:45:07.298Z,872.00
2019-02-06T07:46:07.296Z,876.00
2019-02-06T07:47:07.276Z,880.00
2019-02-06T07:48:07.266Z,892.00
2019-02-06T07:49:07.261Z,892.00
2019-02-06T07:50:07.243Z,896.00
2019-02-06T07:51:07.233Z,896.00
2019-02-06T07:52:07.222Z,892.00
2019-02-06T07:53:07.211Z,888.00
2019-02-06T07:54:07.202Z,892.00
2019-02-06T07:55:07.191Z,908.00
2019-02-06T07:56:07.212Z,924.00
2019-02-06T07:57:07.180Z,940.00
2019-02-06T07:58:07.163Z,948.00
2019-02-06T07:59:07.151Z,964.00
2019-02-06T08:00:07.136Z,976.00
2019-02-06T08:01:07.129Z,980.00
2019-02-06T08:02:07.122Z,992.00
2019-02-06T08:03:07.115Z,1004.00
2019-02-06T08:04:07.114Z,1012.00
2019-02-06T08:05:07.082Z,1012.00
2019-02-06T08:06:07.073Z,1016.00
2019-02-06T08:07:07.060Z,1032.00
2019-02-06T08:08:07.048Z,1048.00
2019-02-06T08:09:07.043Z,1072.00
2019-02-06T08:10:07.028Z,1068.00
2019-02-06T08:11:07.017Z,1104.00
2019-02-06T08:12:07.006Z,1124.00
2019-02-06T08:13:06.995Z,1132.00
2019-02-06T08:14:06.986Z,1144.00
2019-02-06T08:15:06.977Z,1144.00
2019-02-06T08:16:07.507Z,1156.00
2019-02-06T08:17:06.974Z,1164.00
2019-02-06T08:18:06.966Z,1180.00
2019-02-06T08:19:06.942Z,1212.00
2019-02-06T08:20:06.922Z,1224.00
2019-02-06T08:21:06.919Z,1228.00
2019-02-06T08:22:06.898Z,1212.00
2019-02-06T08:23:06.890Z,1200.00
2019-02-06T08:24:06.879Z,1184.00
2019-02-06T08:25:06.869Z,1168.00
2019-02-06T08:26:06.862Z,1180.00
2019-02-06T08:27:06.862Z,1184.00
2019-02-06T08:28:06.833Z,1188.00
2019-02-06T08:29:06.823Z,1200.00
2019-02-06T08:30:06.815Z,1180.00
2019-02-06T08:31:06.802Z,1176.00
2019-02-06T08:32:06.795Z,1184.00
2019-02-06T08:33:06.781Z,1216.00
2019-02-06T08:34:06.770Z,1228.00
2019-02-06T08:35:06.759Z,1236.00
2019-02-06T08:36:06.766Z,1216.00
2019-02-06T08:37:06.740Z,1188.00
2019-02-06T08:38:06.736Z,1156.00
2019-02-06T08:39:06.728Z,1180.00
2019-02-06T08:40:06.709Z,1188.00
2019-02-06T08:41:06.695Z,1184.00
2019-02-06T08:42:06.692Z,1176.00
2019-02-06T08:43:06.683Z,1104.00
2019-02-06T08:44:06.687Z,1108.00
2019-02-06T08:45:06.652Z,1124.00
2019-02-06T08:46:06.646Z,1152.00
2019-02-06T08:47:06.632Z,1136.00
2019-02-06T08:48:06.625Z,1112.00
2019-02-06T08:49:06.612Z,1112.00
2019-02-06T08:50:06.605Z,1176.00
2019-02-06T08:51:06.588Z,1228.00
2019-02-06T08:52:06.576Z,1244.00
2019-02-06T08:53:06.569Z,1260.00
2019-02-06T08:54:06.556Z,1232.00
2019-02-06T08:55:06.551Z,1256.00
2019-02-06T08:56:06.534Z,1260.00
2019-02-06T08:57:06.638Z,1260.00
2019-02-06T08:58:06.513Z,1256.00
2019-02-06T08:59:06.518Z,1264.00
2019-02-06T09:00:06.493Z,1312.00
2019-02-06T09:01:06.494Z,1352.00
2019-02-06T09:02:06.470Z,1396.00
2019-02-06T09:03:06.466Z,1444.00
2019-02-06T09:04:06.456Z,1456.00
2019-02-06T09:05:07.661Z,1472.00
2019-02-06T09:06:06.497Z,1488.00
2019-02-06T09:07:06.418Z,1464.00
2019-02-06T09:08:06.407Z,1504.00
2019-02-06T09:09:06.397Z,1480.00
2019-02-06T09:10:06.437Z,1484.00
2019-02-06T09:11:06.373Z,1532.00
2019-02-06T09:12:06.367Z,1544.00
2019-02-06T09:13:06.354Z,1548.00
2019-02-06T09:14:06.344Z,1568.00
2019-02-06T09:15:06.334Z,1516.00
2019-02-06T09:16:06.345Z,1560.00
2019-02-06T09:17:06.311Z,1556.00
2019-02-06T09:18:06.310Z,1632.00
2019-02-06T09:19:06.290Z,1636.00
2019-02-06T09:20:06.281Z,1684.00
2019-02-06T09:21:06.266Z,1724.00
2019-02-06T09:22:06.275Z,1756.00
2019-02-06T09:23:06.274Z,1788.00
2019-02-06T09:24:06.265Z,1836.00
2019-02-06T09:25:06.225Z,1876.00
2019-02-06T09:26:06.212Z,1864.00
2019-02-06T09:27:06.204Z,1872.00
2019-02-06T09:28:06.191Z,1860.00
2019-02-06T09:29:06.188Z,1844.00
2019-02-06T09:30:06.260Z,1860.00
2019-02-06T09:31:06.161Z,1896.00
2019-02-06T09:32:06.147Z,1908.00
2019-02-06T09:33:06.141Z,1876.00
2019-02-06T09:34:06.129Z,1856.00
2019-02-06T09:35:06.128Z,1864.00
2019-02-06T09:36:06.104Z,1864.00
2019-02-06T09:37:06.099Z,1848.00
2019-02-06T09:38:06.088Z,1808.00
2019-02-06T09:39:11.581Z,1776.00
2019-02-06T09:40:07.061Z,1776.00
2019-02-06T09:41:06.071Z,1776.00
2019-02-06T09:42:06.042Z,1772.00
2019-02-06T09:43:06.036Z,1748.00
2019-02-06T09:44:06.028Z,1780.00
2019-02-06T09:45:06.011Z,1796.00
2019-02-06T09:46:06.008Z,1820.00
2019-02-06T09:47:06.007Z,1864.00
2019-02-06T09:48:05.977Z,1896.00
2019-02-06T09:49:05.966Z,1940.00
2019-02-06T09:50:05.955Z,1976.00
2019-02-06T09:51:05.949Z,2028.00
2019-02-06T09:52:05.943Z,2076.00
2019-02-06T09:53:05.926Z,2140.00
2019-02-06T09:54:05.913Z,2200.00
2019-02-06T09:55:05.901Z,2256.00
2019-02-06T09:56:05.898Z,2312.00
2019-02-06T09:57:05.882Z,2372.00
2019-02-06T09:58:05.885Z,2412.00
2019-02-06T09:59:05.858Z,2432.00
2019-02-06T10:00:05.850Z,2432.00
2019-02-06T10:01:05.837Z,2424.00
2019-02-06T10:02:05.840Z,2436.00
2019-02-06T10:03:05.821Z,2428.00
2019-02-06T10:04:05.825Z,2408.00
2019-02-06T10:05:05.794Z,2384.00
2019-02-06T10:06:05.783Z,2336.00
2019-02-06T10:07:05.773Z,2320.00
2019-02-06T10:08:05.764Z,2260.00
2019-02-06T10:09:05.752Z,2216.00
2019-02-06T10:10:05.766Z,2180.00
2019-02-06T10:11:05.772Z,2104.00
2019-02-06T10:12:05.721Z,2076.00
2019-02-06T10:13:05.838Z,2060.00
2019-02-06T10:14:05.703Z,2008.00
2019-02-06T10:15:05.701Z,1980.00
2019-02-06T10:16:05.680Z,1960.00
2019-02-06T10:17:05.665Z,1964.00
2019-02-06T10:18:05.660Z,1996.00
2019-02-06T10:19:05.654Z,2028.00
2019-02-06T10:20:05.636Z,2040.00
2019-02-06T10:21:05.645Z,2088.00
2019-02-06T10:22:05.619Z,2164.00
2019-02-06T10:23:05.601Z,2220.00
2019-02-06T10:24:05.590Z,2316.00
2019-02-06T10:25:05.579Z,2400.00
2019-02-06T10:26:05.576Z,2468.00
2019-02-06T10:27:05.557Z,2488.00
2019-02-06T10:28:05.548Z,2524.00
2019-02-06T10:29:05.536Z,2500.00
2019-02-06T10:30:05.526Z,2488.00
2019-02-06T10:31:05.515Z,2580.00
2019-02-06T10:32:05.526Z,2656.00
2019-02-06T10:33:03.829Z,2696.00
2019-02-06T10:34:03.800Z,2704.00
2019-02-06T10:35:34.291Z,2632.00
2019-02-06T10:36:34.284Z,2660.00
2019-02-06T10:38:04.754Z,2516.00
2019-02-06T10:39:04.746Z,2416.00
2019-02-06T10:40:35.192Z,2452.00
2019-02-06T10:41:35.240Z,2584.00
2019-02-06T10:43:07.002Z,2764.00
2019-02-06T10:44:06.628Z,2844.00
2019-02-06T10:45:37.109Z,2896.00
2019-02-06T10:46:37.086Z,2968.00
2019-02-06T10:48:07.571Z,3012.00
2019-02-06T10:49:07.542Z,3012.00
2019-02-06T10:50:38.037Z,2780.00
2019-02-06T10:51:38.090Z,2704.00
2019-02-06T10:52:38.094Z,2676.00
2019-02-06T10:53:38.032Z,2464.00
2019-02-06T10:54:37.963Z,2468.00
2019-02-06T10:55:37.951Z,2576.00
2019-02-06T10:56:37.952Z,2700.00
2019-02-06T10:57:37.930Z,2664.00
2019-02-06T10:58:37.919Z,2608.00
2019-02-06T10:59:37.908Z,2596.00
2019-02-06T11:00:37.897Z,2596.00
2019-02-06T11:01:37.885Z,2548.00
2019-02-06T11:02:37.884Z,2536.00
2019-02-06T11:03:37.865Z,2616.00
2019-02-06T11:04:37.857Z,2580.00
2019-02-06T11:05:37.843Z,2704.00
2019-02-06T11:06:37.838Z,2668.00
2019-02-06T11:07:37.822Z,2704.00
2019-02-06T11:08:37.815Z,2844.00
2019-02-06T11:09:45.891Z,2960.00
2019-02-06T11:10:38.790Z,3024.00
2019-02-06T11:11:37.778Z,3080.00
2019-02-06T11:12:37.777Z,3132.00
2019-02-06T11:13:37.761Z,3236.00
2019-02-06T11:14:37.750Z,3248.00
2019-02-06T11:15:37.737Z,3192.00
2019-02-06T11:16:37.726Z,3220.00
2019-02-06T11:17:37.715Z,3288.00
2019-02-06T11:18:37.706Z,3256.00
2019-02-06T11:19:37.703Z,3268.00
2019-02-06T11:20:37.686Z,3316.00
2019-02-06T11:21:37.671Z,3260.00
2019-02-06T11:22:37.664Z,3284.00
2019-02-06T11:23:37.650Z,3400.00
2019-02-06T11:24:37.639Z,3520.00
2019-02-06T11:25:37.632Z,3488.00
2019-02-06T11:26:37.624Z,3500.00
2019-02-06T11:27:37.609Z,3512.00
2019-02-06T11:28:37.600Z,3544.00
2019-02-06T11:29:37.592Z,3556.00
2019-02-06T11:30:37.675Z,3552.00
2019-02-06T11:31:37.571Z,3592.00
2019-02-06T11:32:37.557Z,3560.00
2019-02-06T11:33:37.545Z,3576.00
2019-02-06T11:34:37.540Z,3676.00
2019-02-06T11:35:37.537Z,3744.00
2019-02-06T11:36:37.518Z,3816.00
2019-02-06T11:37:37.572Z,3852.00
2019-02-06T11:38:37.492Z,3852.00
2019-02-06T11:39:37.483Z,3880.00
2019-02-06T11:40:37.469Z,3916.00
2019-02-06T11:41:37.459Z,3916.00
2019-02-06T11:42:37.451Z,4012.00
2019-02-06T11:43:37.436Z,4180.00
2019-02-06T11:44:37.427Z,4388.00
2019-02-06T11:45:37.417Z,4508.00
2019-02-06T11:46:37.404Z,4608.00
2019-02-06T11:47:37.458Z,4832.00
2019-02-06T11:48:37.388Z,5020.00
2019-02-06T11:49:37.372Z,4892.00
2019-02-06T11:50:37.362Z,4896.00
2019-02-06T11:51:37.351Z,4972.00
2019-02-06T11:52:37.353Z,5052.00
2019-02-06T11:53:37.335Z,5112.00
2019-02-06T11:54:37.329Z,5156.00
2019-02-06T11:55:37.305Z,4952.00
2019-02-06T11:56:37.295Z,4868.00
2019-02-06T11:57:37.301Z,4736.00
2019-02-06T11:58:37.275Z,4744.00
2019-02-06T11:59:37.264Z,4804.00
2019-02-06T12:00:37.251Z,4912.00
2019-02-06T12:01:37.456Z,5120.00
2019-02-06T12:02:37.689Z,5400.00
2019-02-06T12:03:37.239Z,5696.00
2019-02-06T12:04:37.209Z,5784.00
2019-02-06T12:05:37.203Z,5884.00
2019-02-06T12:06:37.326Z,5872.00
2019-02-06T12:07:37.197Z,5668.00
2019-02-06T12:08:37.167Z,5532.00
2019-02-06T12:09:37.152Z,5496.00
2019-02-06T12:10:37.154Z,5288.00
2019-02-06T12:11:37.147Z,4600.00
2019-02-06T12:12:37.125Z,4564.00
2019-02-06T12:13:37.110Z,4992.00
2019-02-06T12:14:37.104Z,5100.00
2019-02-06T12:15:37.803Z,5084.00
2019-02-06T12:16:37.082Z,5768.00
2019-02-06T12:17:37.066Z,6404.00
2019-02-06T12:18:37.054Z,7164.00
2019-02-06T12:19:37.046Z,6952.00
2019-02-06T12:20:37.046Z,6320.00
2019-02-06T12:21:37.022Z,5760.00
2019-02-06T12:22:37.019Z,5572.00
2019-02-06T12:23:37.003Z,5988.00
2019-02-06T12:24:36.990Z,6984.00
2019-02-06T12:25:36.982Z,7660.00
2019-02-06T12:26:36.969Z,8016.00
2019-02-06T12:27:36.963Z,8264.00
2019-02-06T12:28:36.947Z,8028.00
2019-02-06T12:29:36.935Z,8240.00
2019-02-06T12:30:36.925Z,8132.00
2019-02-06T12:31:36.914Z,7556.00
2019-02-06T12:32:36.907Z,6716.00
2019-02-06T12:33:36.894Z,5556.00
2019-02-06T12:34:36.885Z,5240.00
2019-02-06T12:35:36.871Z,5468.00
2019-02-06T12:36:36.868Z,5776.00
2019-02-06T12:37:36.849Z,5584.00
2019-02-06T12:38:36.850Z,5324.00
2019-02-06T12:39:36.857Z,5520.00
2019-02-06T12:40:36.816Z,6072.00
2019-02-06T12:41:36.808Z,6208.00
2019-02-06T12:42:36.800Z,6052.00
2019-02-06T12:43:36.792Z,5956.00
2019-02-06T12:44:36.786Z,6352.00
2019-02-06T12:45:36.773Z,6276.00
2019-02-06T12:46:36.756Z,6588.00
2019-02-06T12:47:36.742Z,6744.00
2019-02-06T12:48:36.734Z,6812.00
2019-02-06T12:49:36.724Z,6652.00
2019-02-06T12:50:36.728Z,6880.00
2019-02-06T12:51:36.700Z,6496.00
2019-02-06T12:52:36.695Z,6000.00
2019-02-06T12:53:36.678Z,5708.00
2019-02-06T12:54:36.677Z,5696.00